»·PEaware :: BAW100T KLAS-KSAN

BAW100T :: KLAS-KSAN

FLIGHT INFORMATION

Flight Status: Arrived
Operator:
British Airways
More flights by this operator :: More flights under this callsign
Pilot: Eugene T. (2654)
Aircraft: BOEING 737-800
(B738)
More flights by this aircraft type
Origin: KLAS McCarran Intl
United States
Destination: KSAN San Diego Intl-Lindbergh
United States
More flights between these airports :: More routes between these airports
Route: BOACH5 TNP LYNDI3
File this flight plan on PilotEdge
Remarks:
Altitude:
(Current/Filed)
30,000ft
Speed:
(Current/Filed)
460kts
Departed: 14-Feb-15 12:15 PM
Arrived: 14-Feb-15 12:58 PM
Distance/Time
Traveled:
225nm/0:43
Distance/Time
To Go:
Arrived

Flight Plot

Page will automatically refresh every two minutes.


Map Options




Map Legend


Flown Route
Filed Route
Departure Airport
Arrival Airport
Navaid (VOR, NDB)
Fix

Horizontal Profiles

Position Reports

Time Latitude Longitude Heading Altitude Ground
Speed
14-Feb-15 11:48 36.081156 -115.129454 90 2192ft 0kts
14-Feb-15 11:49 36.081156 -115.129454 90 2192ft 0kts
14-Feb-15 11:50 36.081156 -115.129454 90 2192ft 0kts
14-Feb-15 11:51 36.081156 -115.129454 90 2192ft 0kts
14-Feb-15 11:52 36.081156 -115.129454 90 2192ft 0kts
14-Feb-15 11:53 36.081156 -115.129454 90 2192ft 0kts
14-Feb-15 11:54 36.081156 -115.129454 90 2192ft 0kts
14-Feb-15 11:55 36.081156 -115.129646 90 2192ft 2kts
14-Feb-15 11:56 36.081539 -115.130427 165 2192ft 2kts
14-Feb-15 11:57 36.081595 -115.130441 172 2192ft 0kts
14-Feb-15 11:58 36.081593 -115.130441 172 2192ft 0kts
14-Feb-15 11:59 36.081591 -115.130440 172 2192ft 0kts
14-Feb-15 12:00 36.080292 -115.130261 178 2192ft 10kts
14-Feb-15 12:01 36.078829 -115.130280 180 2192ft 6kts
14-Feb-15 12:02 36.078255 -115.135170 271 2192ft 20kts
14-Feb-15 12:03 36.078287 -115.141176 269 2192ft 17kts
14-Feb-15 12:04 36.078562 -115.147625 271 2192ft 20kts
14-Feb-15 12:05 36.078707 -115.153780 247 2192ft 12kts
14-Feb-15 12:06 36.078035 -115.158520 269 2192ft 23kts
14-Feb-15 12:07 36.078032 -115.163475 270 2192ft 0kts
14-Feb-15 12:08 36.078032 -115.163484 270 2192ft 0kts
14-Feb-15 12:09 36.080000 -115.164262 23 2192ft 49kts
14-Feb-15 12:10 36.119789 -115.149759 347 3934ft 186kts
14-Feb-15 12:11 36.131833 -115.210933 250 5970ft 235kts
14-Feb-15 12:12 36.110276 -115.277350 236 8612ft 259kts
14-Feb-15 12:13 36.029436 -115.326919 200 11422ft 313kts
14-Feb-15 12:14 35.940804 -115.369496 201 13421ft 369kts
14-Feb-15 12:15 35.854377 -115.363071 163 15505ft 391kts
14-Feb-15 12:16 35.747523 -115.321894 162 18314ft 409kts
14-Feb-15 12:17 35.635101 -115.295982 180 21045ft 420kts
14-Feb-15 12:18 35.515626 -115.300792 181 23301ft 434kts
14-Feb-15 12:19 35.392563 -115.305948 182 25117ft 448kts
14-Feb-15 12:20 35.265851 -115.310996 182 26459ft 461kts
14-Feb-15 12:21 35.136632 -115.316008 181 27740ft 469kts
14-Feb-15 12:22 35.004829 -115.321206 180 28953ft 474kts
14-Feb-15 12:23 34.873025 -115.326375 181 30203ft 472kts
14-Feb-15 12:24 34.743071 -115.346098 195 30198ft 473kts
14-Feb-15 12:25 34.619411 -115.400676 199 30232ft 474kts
14-Feb-15 12:26 34.493806 -115.456385 198 30242ft 484kts
14-Feb-15 12:27 34.366671 -115.511789 198 30244ft 484kts
14-Feb-15 12:28 34.257418 -115.605405 221 30245ft 487kts
14-Feb-15 12:29 34.158308 -115.717838 222 30251ft 488kts
14-Feb-15 12:30 34.039906 -115.791515 193 30249ft 483kts
14-Feb-15 12:31 33.908996 -115.830035 191 30246ft 483kts
14-Feb-15 12:32 33.778468 -115.867865 191 30234ft 483kts
14-Feb-15 12:33 33.647506 -115.905990 191 30117ft 483kts
14-Feb-15 12:34 33.521082 -115.957085 216 28233ft 480kts
14-Feb-15 12:35 33.432694 -116.080031 233 25789ft 487kts
14-Feb-15 12:36 33.359859 -116.210569 233 23193ft 467kts
14-Feb-15 12:37 33.258266 -116.296967 204 19798ft 425kts
14-Feb-15 12:38 33.158386 -116.355295 204 16599ft 375kts
14-Feb-15 12:39 33.069687 -116.406879 204 13425ft 336kts
14-Feb-15 12:40 32.988310 -116.454203 203 12038ft 321kts
14-Feb-15 12:41 32.908125 -116.500582 203 11654ft 316kts
14-Feb-15 12:42 32.834195 -116.553906 232 9481ft 306kts
14-Feb-15 12:43 32.793473 -116.636818 239 8017ft 284kts
14-Feb-15 12:44 32.754693 -116.718314 238 7362ft 282kts
14-Feb-15 12:45 32.718224 -116.795387 238 6436ft 253kts
14-Feb-15 12:46 32.697600 -116.872116 257 5009ft 234kts
14-Feb-15 12:47 32.691070 -116.947520 262 3307ft 225kts
14-Feb-15 12:48 32.689663 -117.011535 281 2979ft 182kts
14-Feb-15 12:49 32.704211 -117.068169 286 2739ft 163kts
14-Feb-15 12:50 32.716252 -117.117950 285 1416ft 158kts
14-Feb-15 12:51 32.727985 -117.167084 286 295ft 152kts
14-Feb-15 12:52 32.735473 -117.197705 268 26ft 20kts
14-Feb-15 12:53 32.733782 -117.200469 271 26ft 5kts
14-Feb-15 12:54 32.733784 -117.200568 271 26ft 0kts

Navigation Log

Ident Type
Flight plan parsing failed, navigation log unavailable